KDYS

Dyess AFB Airport

Abilene, Texas, USA
METAR KDYS 151856Z 00000KT 10SM FEW150 BKN180 20/05 A2972 RMK AO2A SLP041 T02000045 $
Observed Flight Rules
Feb-15 @ 18:56 UTC (46 minutes ago) Visual Flight Rules
Visibility Clouds
10 miles
  • Few at 15,000' AGL
  • Broken at 18,000' AGL
Temperatures Readings
Current 20°C / 68°F
Dewpoint 5°C / 41°F
Humidity 38%
Altimeter 29.72" Hg
Pressure 1004.1 hPa
Elevation 545
METAR KDYS 151856Z 00000KT 10SM FEW150 BKN180 20/05 A2972 RMK AO2A SLP041 T02000045 $
Observed Flight Rules
Feb-15 @ 18:56 UTC
(46 minutes ago)
VFR
Clouds
  • Few at 15,000' AGL
  • Broken at 18,000' AGL
Temperature Dewpoint
20°C / 68°F 5°C / 41°F
Humidity Altimeter Pressure
38% 29.72" Hg 1004.1 hPa